Nearby METAR Reports

 

YBUD - Bundaberg, Australia
Distance from station: SSW 6km
Updated: 05/12/2020 21:00
Clear
Clear
 Wind from N
Wind: N 17 km/h
Temperature: 25°C
Dew Point: 20°C
Humidity: 74%
Barometer: 1012 hPa
Clouds: Clear
Visibility: 10 km
2020/12/05 11:00 YBUD 051100Z AUTO 36009KT 9999 // NCD 25/20 Q1012
YGLA - Gladstone, Australia
Distance from station: NW 159km
Updated: 05/12/2020 21:30
Clear
Clear
 Wind from NNE
Wind: NNE 13 km/h
Temperature: 26°C
Dew Point: 20°C
Humidity: 70%
Barometer: 1012 hPa
Clouds: Clear
Visibility: 10 km
2020/12/05 11:30 YGLA 051130Z AUTO 02007KT 9999 // NCD 26/20 Q1012 RF00.0/000.0
YBRK - Rockhampton Airp, Australia
Distance from station: NW 252km
Updated: 05/12/2020 21:30
Clear
Clear
 Wind from NNE
Wind: NNE 19 km/h
Temperature: 25°C
Dew Point: 19°C
Humidity: 69%
Barometer: 1012 hPa
Clouds: Clear
Visibility: 10 km
2020/12/05 11:30 YBRK 051130Z AUTO 02010KT 9999 // NCD 25/19 Q1012 RF00.0/000.0
 
YBBN - Brisbane Intl Ar, Australia
Distance from station: SSE 292km
Updated: 05/12/2020 21:30
Mostly cloudy
Mostly cloudy
 Wind from N
Wind: N 35 km/h
Temperature: 25°C
Dew Point: 22°C
Humidity: 83%
Barometer: 1010 hPa
Clouds: Mostly cloudy
Visibility: 10 km
Cloud details: Few Clouds 457 m
Mostly cloudy 9144 m
2020/12/05 11:30 YBBN 051130Z 01019KT 9999 FEW015 BKN300 25/22 Q1010
YAMB - Amberley, Australia
Distance from station: S 312km
Updated: 05/12/2020 21:30
Clear
Clear
 Wind from E
Wind: E 19 km/h
Temperature: 26°C
Dew Point: 20°C
Humidity: 70%
Barometer: 1009 hPa
Clouds: Clear
Visibility: 10 km
2020/12/05 11:30 YAMB 051130Z AUTO 08010KT 9999 // NCD 26/20 Q1009
YBCG - Coolangatta Aws, Australia
Distance from station: SSE 386km
Updated: 05/12/2020 21:30
Clear
Clear
 Wind from N
Wind: N 26 km/h
Temperature: 24°C
Dew Point: 22°C
Humidity: 89%
Barometer: 1011 hPa
Clouds: Clear
Visibility: 10 km
2020/12/05 11:30 YBCG 051130Z AUTO 35014KT 9999 // NCD 24/22 Q1011 RF00.0/000.0